DTM weather

Dortmund Airport
Dortmund, North Rhine-Westphalia, Germany

Public forecast

Using degrees Celsius for public forecast. Weather courtesy of forecast.io.

Current aviation weather report (METAR) for Dortmund Airport

Retrieved 2019/10/21 21:20 UTC (0 seconds ago):

EDLW 212120Z AUTO 18007KT 9999 // BKN034/// OVC140/// 11/08 Q1021

Aviation forecast (TAF) for Dortmund Airport

Retrieved 2019/10/21 20:00 UTC (1 hour ago):

TAF TAF EDLW 212050Z 2120/2218 CNL